sensor_id;sensor_type;location;lat;lon;timestamp;pressure;altitude;pressure_sealevel;temperature;humidity
55271;BME280;41132;47.162;9.470;2023-02-15T00:02:25;97826.06;;;-1.09;100.00
55271;BME280;41132;47.162;9.470;2023-02-15T00:04:51;97824.81;;;-0.97;100.00
55271;BME280;41132;47.162;9.470;2023-02-15T00:07:18;97820.81;;;-1.06;100.00
55271;BME280;41132;47.162;9.470;2023-02-15T00:09:45;97812.31;;;-1.09;100.00
55271;BME280;41132;47.162;9.470;2023-02-15T00:12:10;97810.13;;;-1.20;100.00
55271;BME280;41132;47.162;9.470;2023-02-15T00:14:36;97809.56;;;-1.30;100.00
55271;BME280;41132;47.162;9.470;2023-02-15T00:17:01;97798.25;;;-1.51;100.00
55271;BME280;41132;47.162;9.470;2023-02-15T00:19:27;97794.06;;;-1.55;100.00
55271;BME280;41132;47.162;9.470;2023-02-15T00:21:52;97814.28;;;-1.69;100.00
55271;BME280;41132;47.162;9.470;2023-02-15T00:24:18;97807.25;;;-1.64;100.00
55271;BME280;41132;47.162;9.470;2023-02-15T00:26:45;97806.31;;;-1.88;100.00
55271;BME280;41132;47.162;9.470;2023-02-15T00:29:11;97793.59;;;-1.94;100.00
55271;BME280;41132;47.162;9.470;2023-02-15T00:31:37;97815.09;;;-1.95;100.00
55271;BME280;41132;47.162;9.470;2023-02-15T00:34:11;97802.41;;;-2.01;100.00
55271;BME280;41132;47.162;9.470;2023-02-15T00:36:37;97801.38;;;-1.96;100.00
55271;BME280;41132;47.162;9.470;2023-02-15T00:39:03;97806.84;;;-2.06;100.00
55271;BME280;41132;47.162;9.470;2023-02-15T00:41:30;97800.03;;;-2.09;100.00
55271;BME280;41132;47.162;9.470;2023-02-15T00:43:56;97806.91;;;-2.08;100.00
55271;BME280;41132;47.162;9.470;2023-02-15T00:46:21;97805.06;;;-2.34;100.00
55271;BME280;41132;47.162;9.470;2023-02-15T00:48:46;97804.81;;;-2.25;100.00
55271;BME280;41132;47.162;9.470;2023-02-15T00:51:12;97804.47;;;-2.42;100.00
55271;BME280;41132;47.162;9.470;2023-02-15T00:53:37;97795.28;;;-2.51;100.00
55271;BME280;41132;47.162;9.470;2023-02-15T00:56:03;97799.03;;;-2.32;100.00
55271;BME280;41132;47.162;9.470;2023-02-15T00:58:28;97801.91;;;-2.42;100.00
55271;BME280;41132;47.162;9.470;2023-02-15T01:00:53;97802.91;;;-2.48;100.00
55271;BME280;41132;47.162;9.470;2023-02-15T01:03:20;97797.88;;;-2.53;100.00
55271;BME280;41132;47.162;9.470;2023-02-15T01:05:47;97799.63;;;-2.53;100.00
55271;BME280;41132;47.162;9.470;2023-02-15T01:08:12;97783.91;;;-2.74;100.00
55271;BME280;41132;47.162;9.470;2023-02-15T01:10:38;97793.41;;;-2.76;100.00
55271;BME280;41132;47.162;9.470;2023-02-15T01:13:03;97773.91;;;-2.83;100.00
55271;BME280;41132;47.162;9.470;2023-02-15T01:15:29;97782.28;;;-2.76;100.00
55271;BME280;41132;47.162;9.470;2023-02-15T01:17:55;97787.19;;;-2.68;100.00
55271;BME280;41132;47.162;9.470;2023-02-15T01:20:22;97792.03;;;-2.58;100.00
55271;BME280;41132;47.162;9.470;2023-02-15T01:22:48;97794.84;;;-2.65;100.00
55271;BME280;41132;47.162;9.470;2023-02-15T01:25:16;97788.28;;;-2.77;100.00
55271;BME280;41132;47.162;9.470;2023-02-15T01:27:42;97789.28;;;-2.81;100.00
55271;BME280;41132;47.162;9.470;2023-02-15T01:30:08;97787.84;;;-2.60;100.00
55271;BME280;41132;47.162;9.470;2023-02-15T01:32:34;97781.75;;;-2.89;100.00
55271;BME280;41132;47.162;9.470;2023-02-15T01:34:59;97791.97;;;-2.86;100.00
55271;BME280;41132;47.162;9.470;2023-02-15T01:37:25;97788.47;;;-2.83;100.00
55271;BME280;41132;47.162;9.470;2023-02-15T01:39:50;97789.69;;;-2.97;100.00
55271;BME280;41132;47.162;9.470;2023-02-15T01:42:21;97797.94;;;-2.85;100.00
55271;BME280;41132;47.162;9.470;2023-02-15T01:45:10;97806.50;;;-2.85;100.00
55271;BME280;41132;47.162;9.470;2023-02-15T01:47:46;97799.31;;;-3.05;100.00
55271;BME280;41132;47.162;9.470;2023-02-15T01:50:29;97799.72;;;-3.20;100.00
55271;BME280;41132;47.162;9.470;2023-02-15T01:55:37;97797.38;;;-3.29;100.00
55271;BME280;41132;47.162;9.470;2023-02-15T01:58:04;97807.59;;;-3.26;100.00
55271;BME280;41132;47.162;9.470;2023-02-15T02:00:30;97801.19;;;-3.44;100.00
55271;BME280;41132;47.162;9.470;2023-02-15T02:02:57;97806.19;;;-3.40;100.00
55271;BME280;41132;47.162;9.470;2023-02-15T02:05:23;97807.94;;;-3.40;100.00
55271;BME280;41132;47.162;9.470;2023-02-15T02:07:50;97803.88;;;-3.50;100.00
55271;BME280;41132;47.162;9.470;2023-02-15T02:10:20;97805.38;;;-3.42;100.00
55271;BME280;41132;47.162;9.470;2023-02-15T02:12:47;97801.97;;;-3.42;100.00
55271;BME280;41132;47.162;9.470;2023-02-15T02:15:13;97808.53;;;-3.30;100.00
55271;BME280;41132;47.162;9.470;2023-02-15T02:17:54;97797.63;;;-3.06;100.00
55271;BME280;41132;47.162;9.470;2023-02-15T02:20:28;97797.09;;;-3.19;100.00
55271;BME280;41132;47.162;9.470;2023-02-15T02:25:52;97803.63;;;-3.07;100.00
55271;BME280;41132;47.162;9.470;2023-02-15T02:33:56;97811.06;;;-2.96;100.00
55271;BME280;41132;47.162;9.470;2023-02-15T02:36:34;97804.81;;;-3.19;100.00
55271;BME280;41132;47.162;9.470;2023-02-15T02:39:09;97805.94;;;-3.29;100.00
55271;BME280;41132;47.162;9.470;2023-02-15T02:41:54;97808.09;;;-3.13;100.00
55271;BME280;41132;47.162;9.470;2023-02-15T02:44:49;97808.03;;;-3.10;100.00
55271;BME280;41132;47.162;9.470;2023-02-15T02:47:26;97809.59;;;-3.05;100.00
55271;BME280;41132;47.162;9.470;2023-02-15T02:50:00;97807.91;;;-3.06;100.00
55271;BME280;41132;47.162;9.470;2023-02-15T02:55:05;97808.06;;;-3.12;100.00
55271;BME280;41132;47.162;9.470;2023-02-15T02:57:32;97818.53;;;-3.20;100.00
55271;BME280;41132;47.162;9.470;2023-02-15T02:59:59;97823.81;;;-3.26;100.00
55271;BME280;41132;47.162;9.470;2023-02-15T03:02:32;97827.34;;;-3.30;100.00
55271;BME280;41132;47.162;9.470;2023-02-15T03:05:03;97832.31;;;-3.22;100.00
55271;BME280;41132;47.162;9.470;2023-02-15T03:07:32;97820.59;;;-3.00;100.00
55271;BME280;41132;47.162;9.470;2023-02-15T03:10:00;97825.91;;;-3.07;100.00
55271;BME280;41132;47.162;9.470;2023-02-15T03:12:30;97824.44;;;-3.16;100.00
55271;BME280;41132;47.162;9.470;2023-02-15T03:15:06;97812.34;;;-3.11;100.00
55271;BME280;41132;47.162;9.470;2023-02-15T03:17:35;97818.06;;;-3.01;100.00
55271;BME280;41132;47.162;9.470;2023-02-15T03:20:08;97819.84;;;-3.05;100.00
55271;BME280;41132;47.162;9.470;2023-02-15T03:22:48;97822.88;;;-3.22;100.00
55271;BME280;41132;47.162;9.470;2023-02-15T03:25:27;97830.50;;;-3.19;100.00
55271;BME280;41132;47.162;9.470;2023-02-15T03:28:01;97816.25;;;-3.32;100.00
55271;BME280;41132;47.162;9.470;2023-02-15T03:30:29;97825.28;;;-3.16;100.00
55271;BME280;41132;47.162;9.470;2023-02-15T03:32:58;97823.19;;;-3.01;100.00
55271;BME280;41132;47.162;9.470;2023-02-15T03:35:26;97802.13;;;-3.14;100.00
55271;BME280;41132;47.162;9.470;2023-02-15T03:38:01;97823.47;;;-3.12;100.00
55271;BME280;41132;47.162;9.470;2023-02-15T03:40:34;97833.56;;;-3.04;100.00
55271;BME280;41132;47.162;9.470;2023-02-15T03:43:32;97830.69;;;-2.94;100.00
55271;BME280;41132;47.162;9.470;2023-02-15T03:46:11;97826.25;;;-2.87;100.00
55271;BME280;41132;47.162;9.470;2023-02-15T03:48:52;97824.03;;;-3.01;100.00
55271;BME280;41132;47.162;9.470;2023-02-15T03:51:22;97848.88;;;-3.00;100.00
55271;BME280;41132;47.162;9.470;2023-02-15T03:54:23;97852.06;;;-2.91;100.00
55271;BME280;41132;47.162;9.470;2023-02-15T03:57:18;97858.53;;;-2.77;100.00
55271;BME280;41132;47.162;9.470;2023-02-15T04:00:13;97845.56;;;-2.72;100.00
55271;BME280;41132;47.162;9.470;2023-02-15T04:03:23;97849.81;;;-2.71;100.00
55271;BME280;41132;47.162;9.470;2023-02-15T04:05:51;97854.75;;;-2.63;100.00
55271;BME280;41132;47.162;9.470;2023-02-15T04:08:17;97844.88;;;-2.79;100.00
55271;BME280;41132;47.162;9.470;2023-02-15T04:10:42;97847.50;;;-2.82;100.00
55271;BME280;41132;47.162;9.470;2023-02-15T04:13:21;97850.78;;;-2.75;100.00
55271;BME280;41132;47.162;9.470;2023-02-15T04:15:47;97848.31;;;-2.80;100.00
55271;BME280;41132;47.162;9.470;2023-02-15T04:21:14;97852.72;;;-2.83;100.00
55271;BME280;41132;47.162;9.470;2023-02-15T04:23:58;97844.44;;;-2.95;100.00
55271;BME280;41132;47.162;9.470;2023-02-15T04:26:42;97848.66;;;-2.92;100.00
55271;BME280;41132;47.162;9.470;2023-02-15T04:29:08;97848.69;;;-2.94;100.00
55271;BME280;41132;47.162;9.470;2023-02-15T04:31:33;97843.78;;;-3.03;100.00
55271;BME280;41132;47.162;9.470;2023-02-15T04:33:58;97850.81;;;-3.09;100.00
55271;BME280;41132;47.162;9.470;2023-02-15T04:36:24;97837.72;;;-3.00;100.00
55271;BME280;41132;47.162;9.470;2023-02-15T04:38:49;97842.16;;;-3.07;100.00
55271;BME280;41132;47.162;9.470;2023-02-15T04:41:14;97836.63;;;-2.90;100.00
55271;BME280;41132;47.162;9.470;2023-02-15T04:43:40;97843.16;;;-2.78;100.00
55271;BME280;41132;47.162;9.470;2023-02-15T04:46:05;97842.47;;;-2.85;100.00
55271;BME280;41132;47.162;9.470;2023-02-15T04:48:30;97831.94;;;-2.76;100.00
55271;BME280;41132;47.162;9.470;2023-02-15T04:50:56;97836.00;;;-2.67;100.00
55271;BME280;41132;47.162;9.470;2023-02-15T04:53:21;97840.44;;;-2.72;100.00
55271;BME280;41132;47.162;9.470;2023-02-15T04:55:46;97832.63;;;-2.69;100.00
55271;BME280;41132;47.162;9.470;2023-02-15T04:58:12;97830.22;;;-2.75;100.00
55271;BME280;41132;47.162;9.470;2023-02-15T05:00:37;97840.19;;;-2.63;100.00
55271;BME280;41132;47.162;9.470;2023-02-15T05:03:03;97841.13;;;-2.67;100.00
55271;BME280;41132;47.162;9.470;2023-02-15T05:05:28;97839.41;;;-2.66;100.00
55271;BME280;41132;47.162;9.470;2023-02-15T05:07:53;97844.88;;;-2.79;100.00
55271;BME280;41132;47.162;9.470;2023-02-15T05:10:19;97837.22;;;-2.80;100.00
55271;BME280;41132;47.162;9.470;2023-02-15T05:12:45;97839.47;;;-2.68;100.00
55271;BME280;41132;47.162;9.470;2023-02-15T05:15:10;97844.38;;;-2.60;100.00
55271;BME280;41132;47.162;9.470;2023-02-15T05:17:36;97839.66;;;-2.76;100.00
55271;BME280;41132;47.162;9.470;2023-02-15T05:20:01;97843.28;;;-2.52;100.00
55271;BME280;41132;47.162;9.470;2023-02-15T05:22:27;97841.78;;;-2.59;100.00
55271;BME280;41132;47.162;9.470;2023-02-15T05:24:52;97847.44;;;-2.79;100.00
55271;BME280;41132;47.162;9.470;2023-02-15T05:27:36;97842.94;;;-2.70;100.00
55271;BME280;41132;47.162;9.470;2023-02-15T05:30:20;97839.56;;;-2.73;100.00
55271;BME280;41132;47.162;9.470;2023-02-15T05:32:45;97839.81;;;-2.82;100.00
55271;BME280;41132;47.162;9.470;2023-02-15T05:35:14;97836.13;;;-2.71;100.00
55271;BME280;41132;47.162;9.470;2023-02-15T05:37:39;97834.53;;;-2.77;100.00
55271;BME280;41132;47.162;9.470;2023-02-15T05:40:05;97841.81;;;-2.60;100.00
55271;BME280;41132;47.162;9.470;2023-02-15T05:42:32;97829.00;;;-2.62;100.00
55271;BME280;41132;47.162;9.470;2023-02-15T05:44:57;97822.31;;;-2.67;100.00
55271;BME280;41132;47.162;9.470;2023-02-15T05:47:22;97819.09;;;-2.76;100.00
55271;BME280;41132;47.162;9.470;2023-02-15T05:49:48;97830.16;;;-2.72;100.00
55271;BME280;41132;47.162;9.470;2023-02-15T05:52:13;97817.97;;;-2.65;100.00
55271;BME280;41132;47.162;9.470;2023-02-15T05:54:38;97832.13;;;-2.50;100.00
55271;BME280;41132;47.162;9.470;2023-02-15T05:57:04;97827.94;;;-2.86;100.00
55271;BME280;41132;47.162;9.470;2023-02-15T05:59:29;97827.81;;;-2.81;100.00
55271;BME280;41132;47.162;9.470;2023-02-15T06:01:54;97827.16;;;-2.89;100.00
55271;BME280;41132;47.162;9.470;2023-02-15T06:04:20;97823.53;;;-2.81;100.00
55271;BME280;41132;47.162;9.470;2023-02-15T06:06:45;97833.66;;;-2.75;100.00
55271;BME280;41132;47.162;9.470;2023-02-15T06:09:12;97829.53;;;-2.82;100.00
55271;BME280;41132;47.162;9.470;2023-02-15T06:11:37;97828.84;;;-2.56;100.00
55271;BME280;41132;47.162;9.470;2023-02-15T06:14:03;97831.97;;;-2.77;100.00
55271;BME280;41132;47.162;9.470;2023-02-15T06:16:28;97832.69;;;-3.05;100.00
55271;BME280;41132;47.162;9.470;2023-02-15T06:18:54;97831.03;;;-3.06;100.00
55271;BME280;41132;47.162;9.470;2023-02-15T06:21:19;97817.47;;;-3.11;100.00
55271;BME280;41132;47.162;9.470;2023-02-15T06:23:45;97839.22;;;-3.26;100.00
55271;BME280;41132;47.162;9.470;2023-02-15T06:26:10;97843.44;;;-3.23;100.00
55271;BME280;41132;47.162;9.470;2023-02-15T06:28:36;97845.97;;;-3.22;100.00
55271;BME280;41132;47.162;9.470;2023-02-15T06:31:02;97843.44;;;-3.23;100.00
55271;BME280;41132;47.162;9.470;2023-02-15T06:33:28;97854.41;;;-3.17;100.00
55271;BME280;41132;47.162;9.470;2023-02-15T06:35:55;97854.72;;;-3.29;100.00
55271;BME280;41132;47.162;9.470;2023-02-15T06:38:21;97861.66;;;-3.34;100.00
55271;BME280;41132;47.162;9.470;2023-02-15T06:40:47;97851.78;;;-3.49;100.00
55271;BME280;41132;47.162;9.470;2023-02-15T06:43:12;97851.69;;;-3.45;100.00
55271;BME280;41132;47.162;9.470;2023-02-15T06:45:37;97857.66;;;-3.44;100.00
55271;BME280;41132;47.162;9.470;2023-02-15T06:48:03;97856.41;;;-3.28;100.00
55271;BME280;41132;47.162;9.470;2023-02-15T06:50:28;97867.16;;;-3.13;100.00
55271;BME280;41132;47.162;9.470;2023-02-15T06:52:57;97849.69;;;-3.33;100.00
55271;BME280;41132;47.162;9.470;2023-02-15T06:55:23;97851.47;;;-3.36;100.00
55271;BME280;41132;47.162;9.470;2023-02-15T06:57:48;97853.19;;;-3.36;100.00
55271;BME280;41132;47.162;9.470;2023-02-15T07:00:14;97851.41;;;-3.34;100.00
55271;BME280;41132;47.162;9.470;2023-02-15T07:02:39;97858.31;;;-3.36;100.00
55271;BME280;41132;47.162;9.470;2023-02-15T07:05:05;97860.00;;;-3.35;100.00
55271;BME280;41132;47.162;9.470;2023-02-15T07:07:30;97849.28;;;-3.17;100.00
55271;BME280;41132;47.162;9.470;2023-02-15T07:09:55;97855.41;;;-3.22;100.00
55271;BME280;41132;47.162;9.470;2023-02-15T07:12:21;97861.41;;;-3.23;100.00
55271;BME280;41132;47.162;9.470;2023-02-15T07:15:05;97860.59;;;-3.24;100.00
55271;BME280;41132;47.162;9.470;2023-02-15T07:17:31;97860.81;;;-3.33;100.00
55271;BME280;41132;47.162;9.470;2023-02-15T07:19:56;97859.44;;;-3.48;100.00
55271;BME280;41132;47.162;9.470;2023-02-15T07:22:22;97856.72;;;-3.42;100.00
55271;BME280;41132;47.162;9.470;2023-02-15T07:24:47;97861.53;;;-3.28;100.00
55271;BME280;41132;47.162;9.470;2023-02-15T07:27:14;97865.84;;;-3.30;100.00
55271;BME280;41132;47.162;9.470;2023-02-15T07:29:39;97855.34;;;-3.21;100.00
55271;BME280;41132;47.162;9.470;2023-02-15T07:32:04;97853.06;;;-3.31;100.00
55271;BME280;41132;47.162;9.470;2023-02-15T07:34:30;97855.53;;;-3.27;100.00
55271;BME280;41132;47.162;9.470;2023-02-15T07:36:55;97855.88;;;-3.06;100.00
55271;BME280;41132;47.162;9.470;2023-02-15T07:39:21;97859.16;;;-3.36;100.00
55271;BME280;41132;47.162;9.470;2023-02-15T07:41:46;97851.47;;;-3.36;100.00
55271;BME280;41132;47.162;9.470;2023-02-15T07:44:13;97848.94;;;-3.39;100.00
55271;BME280;41132;47.162;9.470;2023-02-15T07:46:39;97847.75;;;-3.60;100.00
55271;BME280;41132;47.162;9.470;2023-02-15T07:49:04;97829.06;;;-3.66;100.00
55271;BME280;41132;47.162;9.470;2023-02-15T07:51:30;97860.91;;;-3.75;100.00
55271;BME280;41132;47.162;9.470;2023-02-15T07:53:55;97852.84;;;-3.58;100.00
55271;BME280;41132;47.162;9.470;2023-02-15T07:56:20;97840.16;;;-3.66;100.00
55271;BME280;41132;47.162;9.470;2023-02-15T07:58:46;97845.75;;;-3.48;100.00
55271;BME280;41132;47.162;9.470;2023-02-15T08:01:25;97846.50;;;-3.43;100.00
55271;BME280;41132;47.162;9.470;2023-02-15T08:03:51;97837.63;;;-3.30;100.00
55271;BME280;41132;47.162;9.470;2023-02-15T08:06:17;97837.72;;;-3.34;100.00
55271;BME280;41132;47.162;9.470;2023-02-15T08:08:42;97829.50;;;-3.13;100.00
55271;BME280;41132;47.162;9.470;2023-02-15T08:16:37;97837.94;;;-3.08;100.00
55271;BME280;41132;47.162;9.470;2023-02-15T08:19:07;97840.84;;;-2.89;100.00
55271;BME280;41132;47.162;9.470;2023-02-15T08:21:34;97836.03;;;-2.68;100.00
55271;BME280;41132;47.162;9.470;2023-02-15T08:24:00;97840.59;;;-2.78;100.00
55271;BME280;41132;47.162;9.470;2023-02-15T08:26:27;97834.03;;;-2.90;100.00
55271;BME280;41132;47.162;9.470;2023-02-15T08:28:53;97826.06;;;-2.79;100.00
55271;BME280;41132;47.162;9.470;2023-02-15T08:31:19;97831.16;;;-2.46;100.00
55271;BME280;41132;47.162;9.470;2023-02-15T08:33:46;97829.28;;;-2.41;100.00
55271;BME280;41132;47.162;9.470;2023-02-15T08:36:14;97825.25;;;-2.20;100.00
55271;BME280;41132;47.162;9.470;2023-02-15T08:38:41;97819.00;;;-2.12;100.00
55271;BME280;41132;47.162;9.470;2023-02-15T08:41:21;97817.31;;;-1.84;100.00
55271;BME280;41132;47.162;9.470;2023-02-15T08:43:50;97818.69;;;-2.01;100.00
55271;BME280;41132;47.162;9.470;2023-02-15T08:46:16;97807.53;;;-1.73;100.00
55271;BME280;41132;47.162;9.470;2023-02-15T08:48:42;97810.84;;;-1.68;100.00
55271;BME280;41132;47.162;9.470;2023-02-15T08:53:39;97802.38;;;-1.73;100.00
55271;BME280;41132;47.162;9.470;2023-02-15T08:56:06;97801.28;;;-1.38;100.00
55271;BME280;41132;47.162;9.470;2023-02-15T08:58:32;97805.19;;;-1.26;100.00
55271;BME280;41132;47.162;9.470;2023-02-15T09:00:58;97792.09;;;-1.20;100.00
55271;BME280;41132;47.162;9.470;2023-02-15T09:03:23;97808.28;;;-0.91;100.00
55271;BME280;41132;47.162;9.470;2023-02-15T09:05:49;97809.66;;;-1.06;100.00
55271;BME280;41132;47.162;9.470;2023-02-15T09:08:14;97795.41;;;-0.91;100.00
55271;BME280;41132;47.162;9.470;2023-02-15T09:10:40;97809.00;;;-0.39;100.00
55271;BME280;41132;47.162;9.470;2023-02-15T09:13:05;97799.91;;;-0.48;100.00
55271;BME280;41132;47.162;9.470;2023-02-15T09:15:31;97802.81;;;-0.33;100.00
55271;BME280;41132;47.162;9.470;2023-02-15T09:17:56;97796.91;;;-0.60;100.00
55271;BME280;41132;47.162;9.470;2023-02-15T09:20:24;97791.97;;;-0.19;100.00
55271;BME280;41132;47.162;9.470;2023-02-15T09:22:51;97783.81;;;-0.09;100.00
55271;BME280;41132;47.162;9.470;2023-02-15T09:25:16;97794.66;;;0.23;100.00
55271;BME280;41132;47.162;9.470;2023-02-15T09:27:42;97793.97;;;0.18;100.00
55271;BME280;41132;47.162;9.470;2023-02-15T09:30:08;97789.72;;;0.39;100.00
55271;BME280;41132;47.162;9.470;2023-02-15T09:32:34;97785.25;;;0.43;100.00
55271;BME280;41132;47.162;9.470;2023-02-15T09:34:59;97787.13;;;0.39;100.00
55271;BME280;41132;47.162;9.470;2023-02-15T09:37:24;97789.22;;;0.51;100.00
55271;BME280;41132;47.162;9.470;2023-02-15T09:39:50;97787.25;;;0.36;100.00
55271;BME280;41132;47.162;9.470;2023-02-15T09:42:38;97781.22;;;0.57;100.00
55271;BME280;41132;47.162;9.470;2023-02-15T10:03:29;97768.81;;;1.07;100.00
55271;BME280;41132;47.162;9.470;2023-02-15T10:06:03;97785.63;;;0.96;100.00
55271;BME280;41132;47.162;9.470;2023-02-15T10:11:17;97771.50;;;1.82;100.00
55271;BME280;41132;47.162;9.470;2023-02-15T10:23:12;97756.44;;;1.91;100.00
55271;BME280;41132;47.162;9.470;2023-02-15T10:25:46;97759.63;;;1.59;100.00
55271;BME280;41132;47.162;9.470;2023-02-15T10:28:20;97744.75;;;2.01;100.00
55271;BME280;41132;47.162;9.470;2023-02-15T10:30:50;97748.69;;;2.27;100.00
55271;BME280;41132;47.162;9.470;2023-02-15T10:33:39;97750.31;;;2.29;100.00
55271;BME280;41132;47.162;9.470;2023-02-15T10:36:18;97748.94;;;2.40;100.00
55271;BME280;41132;47.162;9.470;2023-02-15T10:41:50;97738.97;;;2.49;100.00
55271;BME280;41132;47.162;9.470;2023-02-15T10:47:22;97736.34;;;3.02;100.00
55271;BME280;41132;47.162;9.470;2023-02-15T11:01:13;97720.00;;;3.17;100.00
55271;BME280;41132;47.162;9.470;2023-02-15T11:06:28;97695.19;;;2.78;100.00
55271;BME280;41132;47.162;9.470;2023-02-15T11:09:03;97699.69;;;2.75;100.00
55271;BME280;41132;47.162;9.470;2023-02-15T11:11:41;97700.63;;;2.56;100.00
55271;BME280;41132;47.162;9.470;2023-02-15T11:14:15;97692.25;;;2.51;100.00
55271;BME280;41132;47.162;9.470;2023-02-15T11:16:49;97683.22;;;2.76;100.00
55271;BME280;41132;47.162;9.470;2023-02-15T11:19:22;97676.81;;;2.65;100.00
55271;BME280;41132;47.162;9.470;2023-02-15T11:21:55;97673.53;;;2.79;100.00
55271;BME280;41132;47.162;9.470;2023-02-15T11:24:26;97665.50;;;2.50;100.00
55271;BME280;41132;47.162;9.470;2023-02-15T11:27:01;97670.66;;;2.68;100.00
55271;BME280;41132;47.162;9.470;2023-02-15T11:29:33;97663.50;;;2.56;100.00
55271;BME280;41132;47.162;9.470;2023-02-15T11:32:23;97655.66;;;2.57;100.00
55271;BME280;41132;47.162;9.470;2023-02-15T11:34:58;97656.38;;;2.77;100.00
55271;BME280;41132;47.162;9.470;2023-02-15T11:37:35;97650.78;;;2.51;100.00
55271;BME280;41132;47.162;9.470;2023-02-15T11:40:12;97647.31;;;2.68;100.00
55271;BME280;41132;47.162;9.470;2023-02-15T11:42:40;97640.00;;;2.59;100.00
55271;BME280;41132;47.162;9.470;2023-02-15T11:45:30;97634.53;;;2.65;100.00
55271;BME280;41132;47.162;9.470;2023-02-15T11:47:58;97640.81;;;2.77;100.00
55271;BME280;41132;47.162;9.470;2023-02-15T11:50:27;97625.78;;;2.83;100.00
55271;BME280;41132;47.162;9.470;2023-02-15T11:52:58;97639.19;;;2.91;100.00
55271;BME280;41132;47.162;9.470;2023-02-15T11:55:27;97633.69;;;2.98;100.00
55271;BME280;41132;47.162;9.470;2023-02-15T11:58:04;97622.84;;;3.07;100.00
55271;BME280;41132;47.162;9.470;2023-02-15T12:00:43;97623.50;;;3.10;100.00
55271;BME280;41132;47.162;9.470;2023-02-15T12:03:17;97619.31;;;3.08;100.00
55271;BME280;41132;47.162;9.470;2023-02-15T12:05:45;97617.91;;;3.18;100.00
55271;BME280;41132;47.162;9.470;2023-02-15T12:08:20;97612.53;;;3.21;100.00
55271;BME280;41132;47.162;9.470;2023-02-15T12:13:20;97593.88;;;3.30;100.00
55271;BME280;41132;47.162;9.470;2023-02-15T12:15:48;97599.91;;;3.47;100.00
55271;BME280;41132;47.162;9.470;2023-02-15T12:18:39;97598.75;;;3.52;100.00
55271;BME280;41132;47.162;9.470;2023-02-15T12:21:09;97595.72;;;3.44;100.00
55271;BME280;41132;47.162;9.470;2023-02-15T12:23:43;97594.44;;;3.51;100.00
55271;BME280;41132;47.162;9.470;2023-02-15T12:26:12;97594.31;;;3.39;100.00
55271;BME280;41132;47.162;9.470;2023-02-15T12:28:40;97579.72;;;3.36;100.00
55271;BME280;41132;47.162;9.470;2023-02-15T12:31:21;97590.34;;;3.47;100.00
55271;BME280;41132;47.162;9.470;2023-02-15T12:33:50;97590.19;;;3.50;100.00
55271;BME280;41132;47.162;9.470;2023-02-15T12:36:20;97579.25;;;3.45;100.00
55271;BME280;41132;47.162;9.470;2023-02-15T12:41:27;97580.31;;;3.57;100.00
55271;BME280;41132;47.162;9.470;2023-02-15T12:46:33;97567.41;;;3.55;100.00
55271;BME280;41132;47.162;9.470;2023-02-15T12:49:18;97572.16;;;3.63;100.00
55271;BME280;41132;47.162;9.470;2023-02-15T12:51:59;97561.69;;;3.65;100.00
55271;BME280;41132;47.162;9.470;2023-02-15T12:56:53;97559.34;;;3.76;100.00
55271;BME280;41132;47.162;9.470;2023-02-15T12:59:19;97561.03;;;3.77;100.00
55271;BME280;41132;47.162;9.470;2023-02-15T13:01:48;97554.63;;;3.83;100.00
55271;BME280;41132;47.162;9.470;2023-02-15T13:04:24;97557.63;;;3.91;100.00
55271;BME280;41132;47.162;9.470;2023-02-15T13:06:52;97545.59;;;3.74;100.00
55271;BME280;41132;47.162;9.470;2023-02-15T13:11:57;97544.53;;;3.92;100.00
55271;BME280;41132;47.162;9.470;2023-02-15T13:17:09;97537.41;;;3.96;100.00
55271;BME280;41132;47.162;9.470;2023-02-15T13:22:35;97535.50;;;4.14;100.00
55271;BME280;41132;47.162;9.470;2023-02-15T13:25:02;97531.69;;;4.19;100.00
55271;BME280;41132;47.162;9.470;2023-02-15T13:42:57;97522.41;;;4.58;100.00
55271;BME280;41132;47.162;9.470;2023-02-15T13:45:36;97519.75;;;4.60;100.00
55271;BME280;41132;47.162;9.470;2023-02-15T13:54:08;97505.63;;;4.64;100.00
55271;BME280;41132;47.162;9.470;2023-02-15T13:56:54;97504.03;;;4.76;100.00
55271;BME280;41132;47.162;9.470;2023-02-15T14:02:31;97508.38;;;4.90;100.00
55271;BME280;41132;47.162;9.470;2023-02-15T14:21:59;97501.72;;;5.13;100.00
55271;BME280;41132;47.162;9.470;2023-02-15T14:27:37;97499.22;;;5.11;100.00
55271;BME280;41132;47.162;9.470;2023-02-15T14:30:02;97507.38;;;5.19;100.00
55271;BME280;41132;47.162;9.470;2023-02-15T14:32:34;97507.50;;;5.18;100.00
55271;BME280;41132;47.162;9.470;2023-02-15T14:35:12;97511.84;;;5.17;100.00
55271;BME280;41132;47.162;9.470;2023-02-15T14:37:49;97512.88;;;5.15;100.00
55271;BME280;41132;47.162;9.470;2023-02-15T14:49:10;97510.91;;;5.18;100.00
55271;BME280;41132;47.162;9.470;2023-02-15T14:59:54;97523.94;;;5.18;100.00
55271;BME280;41132;47.162;9.470;2023-02-15T15:02:40;97519.03;;;5.14;100.00
55271;BME280;41132;47.162;9.470;2023-02-15T15:08:05;97516.72;;;4.95;100.00
55271;BME280;41132;47.162;9.470;2023-02-15T15:10:43;97524.19;;;4.87;100.00
55271;BME280;41132;47.162;9.470;2023-02-15T15:15:57;97528.25;;;4.76;100.00
55271;BME280;41132;47.162;9.470;2023-02-15T15:18:47;97523.53;;;4.69;100.00
55271;BME280;41132;47.162;9.470;2023-02-15T15:32:45;97532.56;;;4.34;100.00
55271;BME280;41132;47.162;9.470;2023-02-15T15:45:21;97531.91;;;3.86;100.00
55271;BME280;41132;47.162;9.470;2023-02-15T15:50:13;97525.97;;;3.84;100.00
55271;BME280;41132;47.162;9.470;2023-02-15T15:52:41;97536.72;;;3.78;100.00
55271;BME280;41132;47.162;9.470;2023-02-15T15:55:15;97532.13;;;3.67;100.00
55271;BME280;41132;47.162;9.470;2023-02-15T15:57:44;97540.09;;;3.64;100.00
55271;BME280;41132;47.162;9.470;2023-02-15T16:05:34;97546.16;;;3.49;100.00
55271;BME280;41132;47.162;9.470;2023-02-15T16:08:00;97549.50;;;3.35;100.00
55271;BME280;41132;47.162;9.470;2023-02-15T16:10:27;97551.03;;;3.39;100.00
55271;BME280;41132;47.162;9.470;2023-02-15T16:12:53;97551.84;;;3.40;100.00
55271;BME280;41132;47.162;9.470;2023-02-15T16:15:22;97551.28;;;3.34;100.00
55271;BME280;41132;47.162;9.470;2023-02-15T16:17:56;97555.41;;;3.23;100.00